Del Rey, CA (93616)

9:08 PM PST on January 27, 2015 (GMT -0800)
McClarty Farms | Change Station
CLOSE
Current Station
Personal Weather Station
Location: Parlier, CA
Elevation: 338 ft
Nearby Weather Stations

Elev 338 ft 36.62 °N, 119.58 °W | Updated 3 minutes ago

Clear
Clear
52.5 °F
Feels Like 52.5 °F
N
0.0
Wind Variable Wind from North
Gusts 0.0 mph

Today
High -- | Low -- °F
--% Chance of Precip.
Yesterday
High -- | Low -- °F
Precip. -- in
7:03 AM 5:18 PM
First Quarter, 61% visible
Pressure 30.23 in
Visibility 10.0 miles
Clouds Few 5000 ft
Dew Point 50 °F
Humidity 91%
Rainfall 0.18 in
Snow Depth Not available.
UV 0 out of 12
Pollen 1.80 out of 12
Air Quality Not available.
Flu Activity Not available.
METAR KFAT 280453Z 00000KT 10SM FEW050 12/10 A3024 RMK AO2 SLP237 T01170100

More Conditions Fewer Conditions

Pressure 30.23 in
Visibility 10.0 miles
Clouds Few 5000 ft
Dew Point 50 °F
Humidity 91%
Rainfall 0.18 in
Snow Depth Not available.
UV 0 out of 12
Pollen 1.80 out of 12
Air Quality Not available.
Flu Activity Not available.
METAR KFAT 280453Z 00000KT 10SM FEW050 12/10 A3024 RMK AO2 SLP237 T01170100

More Conditions Fewer Conditions

10-Day Weather Forecast

Almanac

Astronomy

Jan. 27, 2015 Rise Set
Actual Time
Civil Twilight
Nautical Twilight
Astronomical Twilight
Moon
Length of Visible Light
Length of Day
Tomorrow will be .
, % of the Moon is Illuminated

Today's Extremes

State Highs State Lows

Community

WunderPhotos

Upload Photos

1,791,102 photos uploaded!

WunderBlogs® & News

Nearby

Air Quality

  Air Quality AQ Index Pollutant
Not available.

Snow Depth

Station Depth Elevation

Earthquake Activity

City Distance Mag. Time & Date
Minimum magnitude displayed is 2.5.

Coastal Water Temperatures

Place Temperature

Nearby Weather Stations